Time;durP1;ratioP1;P1;durP2;ratioP2;P2;SDS_P1;SDS_P2;PMS_P1;PMS_P2;Temp;Humidity;BMP_temperature;BMP_pressure;BME280_temperature;BME280_humidity;BME280_pressure;Samples;Min_cycle;Max_cycle;Signal;HPM_P1;HPM_P2
2023/09/13 00:02:26;;;;;;;28.90;22.90;;;;;;;16.46;100.00;98792.38;272997;1271;22330;-87
2023/09/13 00:08:51;;;;;;;28.70;22.00;;;;;;;16.38;100.00;98795.66;269805;1270;22217;-88
2023/09/13 00:14:53;;;;;;;31.60;23.00;;;;;;;16.30;100.00;98789.30;273384;1270;22204;-89
2023/09/13 00:21:17;;;;;;;29.50;21.20;;;;;;;16.23;100.00;98784.83;273704;1272;22174;-88
2023/09/13 00:27:59;;;;;;;25.40;18.30;;;;;;;16.16;100.00;98784.15;272969;1272;22364;-88
2023/09/13 00:34:02;;;;;;;27.50;21.60;;;;;;;16.07;100.00;98779.77;272050;1270;22550;-88
2023/09/13 00:40:05;;;;;;;28.80;20.80;;;;;;;16.01;100.00;98774.26;272260;1270;22317;-88
2023/09/13 00:46:47;;;;;;;22.90;16.80;;;;;;;15.95;100.00;98774.19;271563;1270;22330;-88
2023/09/13 00:53:30;;;;;;;32.80;22.30;;;;;;;15.87;100.00;98773.90;272806;1270;23024;-88
2023/09/13 01:00:13;;;;;;;27.80;23.20;;;;;;;15.84;100.00;98771.34;273547;1270;22313;-88
2023/09/13 01:06:55;;;;;;;28.50;21.60;;;;;;;15.84;100.00;98774.02;272924;1270;23447;-87
2023/09/13 01:13:39;;;;;;;30.20;21.30;;;;;;;15.83;100.00;98774.59;273519;1278;22180;-88
2023/09/13 01:21:00;;;;;;;26.30;20.60;;;;;;;15.78;100.00;98774.41;273456;1270;22455;-88
2023/09/13 01:27:28;;;;;;;31.40;21.50;;;;;;;15.75;100.00;98773.73;273478;1278;22234;-88
2023/09/13 01:33:30;;;;;;;30.60;22.50;;;;;;;15.73;100.00;98778.11;273133;1270;22193;-88
2023/09/13 01:39:33;;;;;;;23.30;20.10;;;;;;;15.70;100.00;98775.48;272986;1270;22270;-87
2023/09/13 01:45:35;;;;;;;27.80;20.90;;;;;;;15.62;100.00;98771.63;272062;1270;22507;-88
2023/09/13 01:52:31;;;;;;;23.50;19.30;;;;;;;15.56;100.00;98769.41;270273;1271;22568;-88
2023/09/13 01:59:34;;;;;;;25.90;21.30;;;;;;;15.50;100.00;98766.40;273113;1270;22355;-87
2023/09/13 02:06:31;;;;;;;26.20;19.40;;;;;;;15.45;100.00;98770.48;273178;1271;22201;-89
2023/09/13 02:12:33;;;;;;;25.80;18.80;;;;;;;15.38;100.00;98772.77;273356;1270;22355;-88
2023/09/13 02:18:57;;;;;;;27.00;20.90;;;;;;;15.34;100.00;98770.76;273735;1277;23354;-88
2023/09/13 02:25:00;;;;;;;24.90;21.40;;;;;;;15.33;100.00;98770.14;273245;1272;22539;-87
2023/09/13 02:31:02;;;;;;;27.00;22.80;;;;;;;15.26;100.00;98767.05;269725;1272;22676;-87
2023/09/13 02:37:04;;;;;;;31.40;24.30;;;;;;;15.20;100.00;98764.14;269744;1270;24260;-87
2023/09/13 02:43:05;;;;;;;22.30;19.00;;;;;;;15.16;100.00;98761.90;269499;1270;22789;-87
2023/09/13 02:49:07;;;;;;;27.80;20.40;;;;;;;15.13;100.00;98765.23;272623;1272;22895;-88
2023/09/13 02:55:09;;;;;;;26.50;21.10;;;;;;;15.13;100.00;98759.41;272886;1270;22497;-88
2023/09/13 03:01:10;;;;;;;23.60;19.40;;;;;;;15.09;100.00;98760.46;270592;1270;22397;-88
2023/09/13 03:07:56;;;;;;;25.70;20.60;;;;;;;15.07;100.00;98759.86;273171;1270;22324;-88
2023/09/13 03:13:58;;;;;;;26.90;20.00;;;;;;;15.04;100.00;98764.61;273122;1270;22155;-87
2023/09/13 03:20:00;;;;;;;29.50;24.00;;;;;;;14.95;100.00;98756.20;269416;1265;22549;-88
2023/09/13 03:26:57;;;;;;;32.00;26.40;;;;;;;14.91;100.00;98754.98;271424;1262;22215;-87
2023/09/13 03:32:58;;;;;;;28.10;20.00;;;;;;;14.87;100.00;98757.46;269879;1270;23674;-88
2023/09/13 03:39:01;;;;;;;34.20;24.50;;;;;;;14.82;100.00;98758.16;272065;1272;23107;-88
2023/09/13 03:45:45;;;;;;;24.90;20.60;;;;;;;14.73;100.00;98750.77;271237;1270;22173;-87
2023/09/13 03:51:47;;;;;;;25.40;20.90;;;;;;;14.63;100.00;98749.98;272350;1270;22533;-88
2023/09/13 03:57:49;;;;;;;28.10;22.20;;;;;;;14.59;100.00;98746.24;270988;1256;22565;-87
2023/09/13 04:03:51;;;;;;;28.50;23.10;;;;;;;14.55;100.00;98751.31;269340;1270;22537;-88
2023/09/13 04:09:54;;;;;;;30.30;22.70;;;;;;;14.50;100.00;98746.95;271997;1270;23131;-86
2023/09/13 04:16:16;;;;;;;25.90;20.90;;;;;;;14.45;100.00;98748.02;272019;1270;23341;-87
2023/09/13 04:22:21;;;;;;;30.70;22.20;;;;;;;14.48;100.00;98751.68;272807;1270;23232;-87
2023/09/13 04:28:23;;;;;;;25.80;21.70;;;;;;;14.48;100.00;98756.88;270809;1267;23046;-87
2023/09/13 04:34:30;;;;;;;29.30;22.70;;;;;;;14.52;100.00;98757.40;271351;1270;22361;-88
2023/09/13 04:40:32;;;;;;;26.00;21.00;;;;;;;14.47;100.00;98760.90;273189;1271;22202;-87
2023/09/13 04:46:35;;;;;;;29.10;22.30;;;;;;;14.39;100.00;98754.91;272281;1271;22204;-87
2023/09/13 04:52:37;;;;;;;24.80;21.00;;;;;;;14.34;100.00;98748.96;271409;1270;22431;-86
2023/09/13 04:58:55;;;;;;;30.00;21.60;;;;;;;14.29;100.00;98752.94;271683;1270;23501;-87
2023/09/13 05:04:57;;;;;;;28.70;22.40;;;;;;;14.34;100.00;98754.71;273015;1262;22309;-87
2023/09/13 05:10:59;;;;;;;28.90;20.70;;;;;;;14.45;100.00;98759.81;273078;1270;23141;-87
2023/09/13 05:17:01;;;;;;;25.50;20.20;;;;;;;14.63;100.00;98764.77;273044;1270;22969;-87
2023/09/13 05:23:03;;;;;;;28.80;22.00;;;;;;;14.78;100.00;98763.23;273059;1269;22497;-87
2023/09/13 05:29:05;;;;;;;29.60;20.00;;;;;;;14.98;100.00;98763.52;272913;1270;22309;-87
2023/09/13 05:35:07;;;;;;;35.80;24.50;;;;;;;15.23;100.00;98757.33;271055;1259;23087;-87
2023/09/13 05:41:10;;;;;;;28.40;23.40;;;;;;;15.58;100.00;98753.55;272975;1268;22299;-87
2023/09/13 05:47:32;;;;;;;34.50;26.40;;;;;;;15.88;100.00;98750.77;273140;1270;22229;-87
2023/09/13 05:54:16;;;;;;;39.40;27.60;;;;;;;16.15;100.00;98750.53;273085;1271;22322;-87
2023/09/13 06:00:42;;;;;;;33.50;26.00;;;;;;;16.50;100.00;98750.00;272971;1270;23503;-88
2023/09/13 06:06:43;;;;;;;40.10;32.30;;;;;;;16.85;100.00;98752.33;273233;1272;22288;-88
2023/09/13 06:12:45;;;;;;;35.60;27.80;;;;;;;17.18;100.00;98751.86;273065;1271;22313;-87
2023/09/13 06:18:47;;;;;;;34.90;26.70;;;;;;;17.49;100.00;98760.38;272917;1270;22314;-86
2023/09/13 06:24:50;;;;;;;38.50;27.50;;;;;;;17.77;100.00;98767.77;273031;1270;22169;-86
2023/09/13 06:30:52;;;;;;;39.80;27.80;;;;;;;17.98;100.00;98765.11;271330;1269;22464;-87
2023/09/13 06:36:55;;;;;;;36.70;27.40;;;;;;;18.12;100.00;98768.65;270989;1262;22568;-86
2023/09/13 06:42:57;;;;;;;28.70;24.40;;;;;;;18.31;100.00;98767.92;269851;1270;22556;-87
2023/09/13 06:48:58;;;;;;;34.80;22.50;;;;;;;18.51;100.00;98773.72;272497;1270;22185;-87
2023/09/13 06:55:00;;;;;;;30.40;21.60;;;;;;;18.70;100.00;98774.34;273045;1275;22281;-87
2023/09/13 07:01:02;;;;;;;27.40;20.60;;;;;;;18.92;100.00;98775.86;273095;1272;22322;-87
2023/09/13 07:07:04;;;;;;;30.80;20.20;;;;;;;19.15;100.00;98776.52;273177;1272;22181;-87
2023/09/13 07:13:06;;;;;;;30.40;20.20;;;;;;;19.39;100.00;98778.89;272076;1270;22563;-87
2023/09/13 07:19:09;;;;;;;30.80;19.10;;;;;;;19.65;100.00;98782.20;271582;1264;22336;-86
2023/09/13 07:25:10;;;;;;;39.80;20.60;;;;;;;19.90;100.00;98781.85;272905;1266;22363;-87
2023/09/13 07:31:12;;;;;;;25.40;17.50;;;;;;;20.16;100.00;98785.30;270585;1270;25300;-87
2023/09/13 07:37:14;;;;;;;23.00;17.10;;;;;;;20.41;100.00;98777.85;270157;1270;22198;-87
2023/09/13 07:43:16;;;;;;;32.20;18.40;;;;;;;20.71;100.00;98786.73;271151;1270;22489;-86
2023/09/13 07:49:17;;;;;;;26.10;15.60;;;;;;;21.10;100.00;98789.81;272364;1272;23465;-86
2023/09/13 07:55:19;;;;;;;26.10;14.40;;;;;;;21.59;100.00;98789.17;272997;1268;22216;-87
2023/09/13 08:01:21;;;;;;;23.30;13.00;;;;;;;22.11;100.00;98784.92;273017;1265;22333;-87
2023/09/13 08:07:22;;;;;;;24.30;11.90;;;;;;;22.62;100.00;98788.47;272933;1270;22189;-87
2023/09/13 08:13:25;;;;;;;17.00;9.70;;;;;;;23.03;100.00;98792.05;273043;1271;22213;-86
2023/09/13 08:19:48;;;;;;;18.40;8.50;;;;;;;23.36;100.00;98789.92;273227;1270;22257;-88
2023/09/13 08:25:50;;;;;;;17.60;7.70;;;;;;;23.63;100.00;98782.73;273056;1271;22978;-88
2023/09/13 08:31:51;;;;;;;11.50;7.70;;;;;;;23.88;100.00;98778.82;271009;1273;22279;-88
2023/09/13 08:37:54;;;;;;;15.50;7.90;;;;;;;24.15;100.00;98779.14;271310;1270;23438;-87
2023/09/13 08:43:59;;;;;;;15.30;7.80;;;;;;;24.37;100.00;98778.66;272942;1272;22183;-87
2023/09/13 08:50:03;;;;;;;14.50;8.20;;;;;;;24.57;99.59;98779.84;272838;1270;22248;-88
2023/09/13 08:56:06;;;;;;;13.90;7.50;;;;;;;24.95;98.54;98780.24;272886;1270;22187;-88
2023/09/13 09:02:32;;;;;;;14.00;8.00;;;;;;;25.44;97.21;98775.94;273101;1272;22325;-88
2023/09/13 09:08:39;;;;;;;15.60;7.60;;;;;;;26.25;95.25;98776.02;272982;1270;22331;-88
2023/09/13 09:14:43;;;;;;;16.80;7.60;;;;;;;27.11;91.96;98772.30;273026;1272;22883;-88
2023/09/13 09:20:45;;;;;;;11.40;6.90;;;;;;;28.01;89.44;98773.52;272804;1271;22334;-88
2023/09/13 09:26:47;;;;;;;9.30;6.20;;;;;;;28.87;87.56;98771.46;272733;1270;23500;-88
2023/09/13 09:32:48;;;;;;;21.60;7.90;;;;;;;29.61;84.40;98769.51;272815;1271;23037;-88
2023/09/13 09:38:53;;;;;;;10.40;5.60;;;;;;;30.20;81.68;98765.05;272988;1272;22484;-89
2023/09/13 09:44:56;;;;;;;12.30;6.20;;;;;;;30.88;79.16;98757.71;272922;1265;22195;-89
2023/09/13 09:50:58;;;;;;;15.40;6.70;;;;;;;31.48;76.18;98750.40;272960;1272;22200;-89
2023/09/13 09:57:00;;;;;;;10.80;7.00;;;;;;;32.09;74.16;98750.82;272766;1271;22399;-89
2023/09/13 10:03:03;;;;;;;11.00;6.60;;;;;;;32.40;70.05;98751.95;272873;1273;22393;-88
2023/09/13 10:09:05;;;;;;;12.60;7.10;;;;;;;32.87;68.33;98753.16;272769;1273;22290;-88
2023/09/13 10:15:08;;;;;;;14.60;7.10;;;;;;;33.22;66.05;98752.11;272631;1271;22305;-86
2023/09/13 10:21:10;;;;;;;12.30;6.40;;;;;;;33.71;63.69;98744.75;272634;1272;22279;-86
2023/09/13 10:27:12;;;;;;;11.00;6.40;;;;;;;33.89;61.56;98737.08;272772;1272;22118;-87
2023/09/13 10:33:15;;;;;;;11.10;6.60;;;;;;;34.11;59.59;98736.10;272976;1272;22307;-87
2023/09/13 10:39:39;;;;;;;15.20;6.30;;;;;;;34.22;58.14;98731.38;272801;1271;23390;-87
2023/09/13 10:45:41;;;;;;;10.40;6.30;;;;;;;33.95;56.28;98730.07;272775;1272;22685;-87
2023/09/13 10:51:43;;;;;;;15.10;6.80;;;;;;;34.04;55.77;98729.77;272856;1272;22393;-86
2023/09/13 10:57:49;;;;;;;9.80;6.00;;;;;;;33.98;54.30;98725.23;272716;1270;22346;-88
2023/09/13 11:03:51;;;;;;;12.80;6.70;;;;;;;33.80;53.09;98726.30;272894;1270;22126;-87
2023/09/13 11:09:53;;;;;;;12.80;6.00;;;;;;;33.72;52.65;98725.02;272986;1272;22182;-88
2023/09/13 11:15:56;;;;;;;10.40;5.80;;;;;;;33.23;51.98;98721.30;272808;1267;123986;-87
2023/09/13 11:22:02;;;;;;;13.50;6.20;;;;;;;32.63;50.84;98720.02;272658;1264;22378;-86
2023/09/13 11:28:08;;;;;;;12.40;6.00;;;;;;;32.04;51.08;98719.87;272786;1270;22219;-88
2023/09/13 11:34:13;;;;;;;9.70;6.50;;;;;;;31.64;51.44;98716.89;272833;1269;22166;-87
2023/09/13 11:40:15;;;;;;;11.80;6.30;;;;;;;31.16;51.10;98719.80;272989;1271;22226;-88
2023/09/13 11:46:18;;;;;;;10.80;6.70;;;;;;;30.84;51.34;98717.24;271453;1270;22371;-88
2023/09/13 11:52:21;;;;;;;13.30;7.10;;;;;;;30.51;51.59;98710.63;272895;1270;22303;-87
2023/09/13 11:58:36;;;;;;;10.70;6.80;;;;;;;30.34;51.88;98710.20;272583;1260;23782;-88
2023/09/13 12:04:38;;;;;;;10.80;6.50;;;;;;;30.04;52.88;98714.77;272291;1271;23167;-87
2023/09/13 12:10:40;;;;;;;9.90;6.50;;;;;;;29.75;52.38;98713.83;270865;1270;22586;-87
2023/09/13 12:16:42;;;;;;;14.20;6.80;;;;;;;29.53;52.77;98716.58;272917;1270;22311;-87
2023/09/13 12:22:45;;;;;;;13.70;7.10;;;;;;;29.32;52.99;98717.85;272968;1270;23056;-88
2023/09/13 12:28:48;;;;;;;12.50;6.50;;;;;;;29.16;53.58;98715.02;273119;1270;22313;-88
2023/09/13 12:34:50;;;;;;;13.10;7.60;;;;;;;28.96;54.66;98711.29;273099;1270;22272;-85
2023/09/13 12:40:54;;;;;;;9.40;6.90;;;;;;;28.75;54.81;98707.55;272928;1270;22587;-88
2023/09/13 12:46:59;;;;;;;8.70;6.80;;;;;;;28.57;54.57;98710.86;272983;1270;23074;-87
2023/09/13 12:53:02;;;;;;;11.70;6.80;;;;;;;28.51;54.71;98706.08;273114;1270;22249;-87
2023/09/13 12:59:06;;;;;;;11.00;7.30;;;;;;;28.39;55.32;98704.48;273022;1270;22220;-88
2023/09/13 13:05:13;;;;;;;10.80;7.00;;;;;;;28.27;56.00;98706.24;272514;1270;22418;-88
2023/09/13 13:11:15;;;;;;;9.20;7.50;;;;;;;28.17;55.37;98707.34;271147;1270;22337;-89
2023/09/13 13:17:17;;;;;;;11.50;6.60;;;;;;;28.14;54.91;98698.89;272763;1270;23022;-88
2023/09/13 13:23:19;;;;;;;10.50;7.10;;;;;;;28.06;55.59;98694.68;273062;1270;22150;-89
2023/09/13 13:29:42;;;;;;;11.50;7.60;;;;;;;27.84;56.47;98694.42;272647;1270;22402;-89
2023/09/13 13:35:52;;;;;;;8.70;6.80;;;;;;;27.67;56.88;98692.33;272721;1270;22389;-88
2023/09/13 13:41:59;;;;;;;8.80;6.60;;;;;;;27.51;57.56;98684.96;271839;1270;22537;-87
2023/09/13 13:48:05;;;;;;;8.50;7.00;;;;;;;27.43;57.66;98683.75;270955;1270;23415;-88
2023/09/13 13:54:18;;;;;;;12.10;7.00;;;;;;;27.43;57.97;98674.25;270333;1270;22636;-88
2023/09/13 14:00:27;;;;;;;10.70;7.60;;;;;;;27.45;58.12;98665.94;270503;1263;22546;-88
2023/09/13 14:06:35;;;;;;;8.80;6.50;;;;;;;27.49;58.11;98660.36;271952;1270;22211;-89
2023/09/13 14:12:49;;;;;;;12.20;6.90;;;;;;;27.51;57.84;98652.20;272934;1270;22335;-89
2023/09/13 14:19:16;;;;;;;8.50;6.80;;;;;;;27.49;57.34;98643.34;272281;1270;25329;-89
2023/09/13 14:25:44;;;;;;;11.80;7.00;;;;;;;27.42;57.39;98640.21;272474;1269;22335;-88
2023/09/13 14:32:03;;;;;;;10.20;7.40;;;;;;;27.31;58.48;98640.41;270481;1270;22549;-88
2023/09/13 14:44:50;;;;;;;;;;;;;;;27.16;59.78;98633.42;272766;1270;23271;-89
2023/09/13 14:51:00;;;;;;;11.40;7.50;;;;;;;27.15;60.01;98628.92;273058;1270;22224;-89
2023/09/13 14:57:23;;;;;;;12.80;7.70;;;;;;;27.14;59.58;98629.73;272902;1270;22260;-89
2023/09/13 15:03:51;;;;;;;9.70;7.60;;;;;;;27.07;59.38;98631.19;272888;1270;22404;-88
2023/09/13 15:10:20;;;;;;;9.90;6.60;;;;;;;26.93;59.79;98633.22;273024;1270;22327;-88
2023/09/13 15:16:22;;;;;;;10.80;7.40;;;;;;;26.84;60.26;98636.02;273073;1270;23156;-88
2023/09/13 15:22:38;;;;;;;9.60;7.40;;;;;;;26.79;60.32;98634.99;273112;1263;22550;-88
2023/09/13 15:29:08;;;;;;;14.80;9.90;;;;;;;26.77;60.45;98637.99;270973;1270;23365;-87
2023/09/13 15:35:19;;;;;;;15.70;11.90;;;;;;;26.72;60.56;98639.85;271133;1270;23136;-89
2023/09/13 15:42:02;;;;;;;13.00;10.20;;;;;;;26.59;60.91;98642.02;272787;1270;22587;-89
2023/09/13 15:48:28;;;;;;;19.00;8.70;;;;;;;26.45;61.08;98641.84;269453;1270;24586;-88
2023/09/13 15:54:46;;;;;;;12.70;8.20;;;;;;;26.25;61.37;98642.27;272290;1270;22590;-88
2023/09/13 16:01:18;;;;;;;18.60;9.80;;;;;;;26.08;61.86;98638.97;270529;1270;22576;-89
2023/09/13 16:07:34;;;;;;;14.40;10.00;;;;;;;25.93;62.68;98634.94;271518;1270;23510;-88
2023/09/13 16:13:42;;;;;;;13.80;10.10;;;;;;;25.73;63.84;98630.28;273272;1275;22198;-88
2023/09/13 16:27:26;;;;;;;;;;;;;;;;;;;;;
2023/09/13 16:34:51;;;;;;;;;;;;;;;;;;;;;
2023/09/13 16:41:02;;;;;;;17.30;12.00;;;;;;;24.57;70.53;98622.00;273485;1278;23043;-88
2023/09/13 16:47:04;;;;;;;20.20;12.30;;;;;;;24.36;72.05;98622.84;273105;1270;22173;-88
2023/09/13 16:53:06;;;;;;;18.00;11.90;;;;;;;24.20;73.48;98635.41;273216;1270;22398;-87
2023/09/13 16:59:08;;;;;;;17.30;11.80;;;;;;;24.09;74.73;98648.67;273124;1270;23585;-87
2023/09/13 17:05:11;;;;;;;20.70;11.90;;;;;;;23.89;76.24;98667.74;273263;1270;23939;-88
2023/09/13 17:11:14;;;;;;;20.10;12.00;;;;;;;23.72;78.19;98682.52;273060;1270;23221;-88
2023/09/13 17:17:21;;;;;;;18.60;13.00;;;;;;;23.56;79.22;98683.52;273034;1270;22328;-87
2023/09/13 17:23:23;;;;;;;;;;;;;;;23.41;80.15;98685.88;273125;1270;22434;-87
2023/09/13 17:29:26;;;;;;;30.10;13.90;;;;;;;23.29;81.12;98689.21;273157;1270;22442;-87
2023/09/13 17:35:28;;;;;;;20.70;12.80;;;;;;;23.19;82.37;98702.42;273166;1270;22188;-87
2023/09/13 17:41:30;;;;;;;20.60;16.70;;;;;;;23.02;82.78;98706.89;272925;1270;22387;-87
2023/09/13 17:47:32;;;;;;;22.90;16.40;;;;;;;23.03;84.13;98704.62;273227;1270;23440;-87
2023/09/13 17:53:34;;;;;;;24.20;17.90;;;;;;;22.98;83.85;98703.25;273218;1270;22371;-87
2023/09/13 17:59:36;;;;;;;23.10;17.90;;;;;;;22.92;83.75;98709.58;273171;1269;22251;-88
2023/09/13 18:05:38;;;;;;;25.30;17.90;;;;;;;22.91;84.77;98711.06;273038;1270;23346;-87
2023/09/13 18:11:39;;;;;;;25.70;19.10;;;;;;;22.91;86.67;98714.13;273165;1270;22472;-87
2023/09/13 18:17:41;;;;;;;27.90;17.90;;;;;;;22.90;87.55;98709.73;273113;1270;23552;-88
2023/09/13 18:23:43;;;;;;;26.50;19.40;;;;;;;22.87;88.29;98702.87;272931;1270;22403;-87
2023/09/13 18:29:45;;;;;;;29.70;19.50;;;;;;;22.78;88.80;98697.19;273214;1270;22296;-87
2023/09/13 18:35:47;;;;;;;24.60;17.00;;;;;;;22.70;89.73;98699.34;272911;1270;22302;-88
2023/09/13 18:41:49;;;;;;;23.40;18.30;;;;;;;22.64;90.36;98700.27;273185;1264;24213;-88
2023/09/13 18:47:51;;;;;;;25.10;17.00;;;;;;;22.55;91.06;98702.23;272850;1270;23447;-88
2023/09/13 18:54:01;;;;;;;18.50;15.10;;;;;;;22.40;91.09;98706.79;272901;1270;22315;-87
2023/09/13 19:00:04;;;;;;;26.00;18.00;;;;;;;22.25;92.02;98703.98;272959;1270;23715;-88
2023/09/13 19:06:11;;;;;;;23.10;17.80;;;;;;;22.14;92.57;98717.75;273236;1270;22246;-88
2023/09/13 19:12:13;;;;;;;;;;;;;;;21.98;92.80;98722.77;272983;1271;22423;-88
2023/09/13 19:18:15;;;;;;;30.30;21.70;;;;;;;21.81;93.49;98725.49;272933;1270;22413;-87
2023/09/13 19:24:16;;;;;;;25.60;19.80;;;;;;;21.67;94.05;98735.23;273186;1270;22333;-87
2023/09/13 19:30:18;;;;;;;26.00;21.10;;;;;;;21.61;94.84;98739.98;272960;1270;22888;-86
2023/09/13 19:36:20;;;;;;;29.80;21.30;;;;;;;21.52;95.46;98746.44;273143;1270;22410;-87
2023/09/13 19:42:21;;;;;;;32.70;21.80;;;;;;;21.45;95.58;98751.32;273149;1270;22207;-87
2023/09/13 19:48:25;;;;;;;30.10;21.10;;;;;;;21.41;95.92;98752.44;273062;1270;22341;-88
2023/09/13 19:54:26;;;;;;;28.00;21.60;;;;;;;21.35;95.03;98750.58;272976;1270;22270;-86
2023/09/13 20:00:31;;;;;;;30.30;21.50;;;;;;;21.29;95.44;98758.74;273072;1270;23501;-87
2023/09/13 20:06:36;;;;;;;27.90;21.20;;;;;;;21.26;95.59;98772.21;273109;1262;22315;-87
2023/09/13 20:12:38;;;;;;;28.10;20.20;;;;;;;21.27;96.05;98783.32;273016;1270;23544;-86
2023/09/13 20:18:42;;;;;;;27.40;20.00;;;;;;;21.27;96.21;98795.48;273081;1270;22248;-87
2023/09/13 20:24:46;;;;;;;26.60;21.10;;;;;;;21.24;96.87;98827.98;273017;1270;23996;-86
2023/09/13 20:30:48;;;;;;;33.30;23.10;;;;;;;21.13;96.84;98843.45;273136;1270;22284;-88
2023/09/13 20:36:50;;;;;;;30.60;22.90;;;;;;;21.05;97.09;98843.02;273040;1270;22365;-87
2023/09/13 20:42:53;;;;;;;30.70;21.70;;;;;;;20.97;97.61;98849.08;273085;1271;22215;-88
2023/09/13 20:48:54;;;;;;;36.00;20.90;;;;;;;20.93;97.94;98852.85;271944;1272;22320;-87
2023/09/13 20:54:56;;;;;;;27.80;19.90;;;;;;;20.94;98.02;98868.08;273099;1270;22255;-86
2023/09/13 21:00:58;;;;;;;25.30;16.60;;;;;;;20.96;97.76;98887.84;271206;1271;22539;-88
2023/09/13 21:07:00;;;;;;;25.80;16.50;;;;;;;20.97;97.13;98905.92;272478;1272;23073;-87
2023/09/13 21:13:04;;;;;;;20.40;14.70;;;;;;;20.96;96.80;98915.58;272674;1271;22196;-88
2023/09/13 21:19:06;;;;;;;18.00;13.60;;;;;;;20.94;96.47;98917.11;272907;1272;22235;-88
2023/09/13 21:25:08;;;;;;;17.30;13.90;;;;;;;20.94;96.28;98915.30;272816;1272;22338;-88
2023/09/13 21:31:10;;;;;;;20.30;12.10;;;;;;;20.91;96.24;98909.75;273016;1270;22202;-87
2023/09/13 21:37:12;;;;;;;14.90;11.20;;;;;;;20.88;96.23;98898.15;272726;1271;22345;-88
2023/09/13 21:43:13;;;;;;;17.90;11.10;;;;;;;20.87;96.37;98888.44;272793;1272;22331;-88
2023/09/13 21:49:16;;;;;;;13.80;11.30;;;;;;;20.82;96.95;98890.08;272991;1271;22180;-88
2023/09/13 21:55:32;;;;;;;15.90;9.90;;;;;;;20.74;97.44;98895.91;272012;1277;22628;-87
2023/09/13 22:01:34;;;;;;;14.50;9.30;;;;;;;20.71;97.57;98909.43;272547;1275;23758;-88
2023/09/13 22:07:36;;;;;;;15.80;9.00;;;;;;;20.65;97.87;98920.10;272304;1265;23569;-88
2023/09/13 22:13:39;;;;;;;18.20;9.90;;;;;;;20.58;98.07;98925.16;272258;1267;22396;-88
2023/09/13 22:19:43;;;;;;;18.40;9.90;;;;;;;20.53;98.32;98917.94;272093;1277;22437;-87
2023/09/13 22:25:45;;;;;;;17.20;9.30;;;;;;;20.48;98.40;98933.27;272616;1276;22196;-87
2023/09/13 22:31:47;;;;;;;15.70;9.10;;;;;;;20.43;99.03;98950.10;273200;1274;22187;-87
2023/09/13 22:37:49;;;;;;;9.20;8.20;;;;;;;20.40;99.62;98960.20;273111;1263;22662;-87
2023/09/13 22:43:51;;;;;;;12.40;8.90;;;;;;;20.36;99.88;98960.79;273095;1269;22428;-87
2023/09/13 22:49:53;;;;;;;15.20;9.30;;;;;;;20.32;100.00;98969.16;273131;1272;22329;-87
2023/09/13 22:55:55;;;;;;;12.30;9.10;;;;;;;20.30;100.00;98973.42;272533;1270;23340;-87
2023/09/13 23:01:57;;;;;;;14.10;8.50;;;;;;;20.23;100.00;98964.56;270396;1272;23203;-87
2023/09/13 23:07:58;;;;;;;13.00;9.00;;;;;;;20.18;100.00;98963.42;271270;1272;22342;-87
2023/09/13 23:14:00;;;;;;;9.80;8.80;;;;;;;20.14;100.00;98970.98;271631;1271;23007;-87
2023/09/13 23:20:10;;;;;;;9.50;8.50;;;;;;;20.12;100.00;98968.27;269920;1271;127367;-87
2023/09/13 23:26:12;;;;;;;11.90;9.20;;;;;;;20.06;100.00;98958.97;271816;1270;22654;-87
2023/09/13 23:32:14;;;;;;;11.20;8.40;;;;;;;20.00;100.00;98954.06;271134;1271;22365;-87
2023/09/13 23:38:16;;;;;;;13.90;8.70;;;;;;;19.96;100.00;98957.90;271679;1256;22386;-88
2023/09/13 23:44:17;;;;;;;11.20;7.70;;;;;;;19.90;100.00;98960.83;273066;1272;22428;-86
2023/09/13 23:50:19;;;;;;;15.60;8.60;;;;;;;19.85;100.00;98960.91;273066;1272;23409;-87
2023/09/13 23:56:21;;;;;;;12.80;8.60;;;;;;;19.80;100.00;98967.39;273054;1272;22202;-88
